sensor_id;sensor_type;location;lat;lon;timestamp;temperature;humidity
60909;DHT22;46780;48.128;-1.704;2023-06-14T00:02:12;19.70;83.30
60909;DHT22;46780;48.128;-1.704;2023-06-14T00:04:38;19.60;84.40
60909;DHT22;46780;48.128;-1.704;2023-06-14T00:07:05;19.50;85.40
60909;DHT22;46780;48.128;-1.704;2023-06-14T00:09:32;19.40;86.20
60909;DHT22;46780;48.128;-1.704;2023-06-14T00:11:58;19.40;87.00
60909;DHT22;46780;48.128;-1.704;2023-06-14T00:14:26;19.40;87.70
60909;DHT22;46780;48.128;-1.704;2023-06-14T00:16:52;19.30;88.10
60909;DHT22;46780;48.128;-1.704;2023-06-14T00:19:19;19.30;88.80
60909;DHT22;46780;48.128;-1.704;2023-06-14T00:21:45;19.30;89.20
60909;DHT22;46780;48.128;-1.704;2023-06-14T00:24:12;19.30;89.90
60909;DHT22;46780;48.128;-1.704;2023-06-14T00:26:38;19.30;90.00
60909;DHT22;46780;48.128;-1.704;2023-06-14T00:29:05;19.30;90.20
60909;DHT22;46780;48.128;-1.704;2023-06-14T00:31:32;19.30;90.40
60909;DHT22;46780;48.128;-1.704;2023-06-14T00:33:59;19.20;90.60
60909;DHT22;46780;48.128;-1.704;2023-06-14T00:36:25;19.20;91.00
60909;DHT22;46780;48.128;-1.704;2023-06-14T00:38:52;19.10;91.20
60909;DHT22;46780;48.128;-1.704;2023-06-14T00:41:18;19.10;91.50
60909;DHT22;46780;48.128;-1.704;2023-06-14T00:43:45;19.00;91.70
60909;DHT22;46780;48.128;-1.704;2023-06-14T00:46:11;19.00;92.10
60909;DHT22;46780;48.128;-1.704;2023-06-14T00:48:39;19.00;92.40
60909;DHT22;46780;48.128;-1.704;2023-06-14T00:51:06;19.00;92.60
60909;DHT22;46780;48.128;-1.704;2023-06-14T00:53:33;19.00;93.00
60909;DHT22;46780;48.128;-1.704;2023-06-14T00:56:00;19.00;93.00
60909;DHT22;46780;48.128;-1.704;2023-06-14T00:58:27;19.00;93.20
60909;DHT22;46780;48.128;-1.704;2023-06-14T01:00:54;19.00;93.50
60909;DHT22;46780;48.128;-1.704;2023-06-14T01:03:21;19.00;93.70
60909;DHT22;46780;48.128;-1.704;2023-06-14T01:05:49;19.00;93.90
60909;DHT22;46780;48.128;-1.704;2023-06-14T01:08:24;19.00;94.10
60909;DHT22;46780;48.128;-1.704;2023-06-14T01:10:56;19.00;94.20
60909;DHT22;46780;48.128;-1.704;2023-06-14T01:13:28;19.00;94.20
60909;DHT22;46780;48.128;-1.704;2023-06-14T01:15:55;19.00;94.30
60909;DHT22;46780;48.128;-1.704;2023-06-14T01:18:22;19.00;94.40
60909;DHT22;46780;48.128;-1.704;2023-06-14T01:20:50;19.00;94.60
60909;DHT22;46780;48.128;-1.704;2023-06-14T01:23:18;18.90;94.90
60909;DHT22;46780;48.128;-1.704;2023-06-14T01:25:45;18.90;95.10
60909;DHT22;46780;48.128;-1.704;2023-06-14T01:28:12;18.90;95.30
60909;DHT22;46780;48.128;-1.704;2023-06-14T01:30:41;18.90;95.50
60909;DHT22;46780;48.128;-1.704;2023-06-14T01:33:09;18.90;95.60
60909;DHT22;46780;48.128;-1.704;2023-06-14T01:35:36;18.90;95.90
60909;DHT22;46780;48.128;-1.704;2023-06-14T01:38:03;18.90;96.00
60909;DHT22;46780;48.128;-1.704;2023-06-14T01:40:31;18.90;96.20
60909;DHT22;46780;48.128;-1.704;2023-06-14T01:42:59;18.90;96.30
60909;DHT22;46780;48.128;-1.704;2023-06-14T01:45:25;18.90;96.30
60909;DHT22;46780;48.128;-1.704;2023-06-14T01:47:52;19.00;96.40
60909;DHT22;46780;48.128;-1.704;2023-06-14T01:50:20;19.00;96.50
60909;DHT22;46780;48.128;-1.704;2023-06-14T01:52:46;18.90;96.60
60909;DHT22;46780;48.128;-1.704;2023-06-14T01:55:13;18.90;96.60
60909;DHT22;46780;48.128;-1.704;2023-06-14T01:57:40;18.90;96.70
60909;DHT22;46780;48.128;-1.704;2023-06-14T02:00:08;18.80;97.00
60909;DHT22;46780;48.128;-1.704;2023-06-14T02:02:34;18.80;97.20
60909;DHT22;46780;48.128;-1.704;2023-06-14T02:05:01;18.80;97.30
60909;DHT22;46780;48.128;-1.704;2023-06-14T02:07:27;18.80;97.50
60909;DHT22;46780;48.128;-1.704;2023-06-14T02:09:54;18.80;97.60
60909;DHT22;46780;48.128;-1.704;2023-06-14T02:12:20;18.80;97.70
60909;DHT22;46780;48.128;-1.704;2023-06-14T02:14:48;18.70;97.90
60909;DHT22;46780;48.128;-1.704;2023-06-14T02:17:14;18.70;98.10
60909;DHT22;46780;48.128;-1.704;2023-06-14T02:19:41;18.70;98.20
60909;DHT22;46780;48.128;-1.704;2023-06-14T02:22:07;18.60;98.20
60909;DHT22;46780;48.128;-1.704;2023-06-14T02:24:34;18.50;98.60
60909;DHT22;46780;48.128;-1.704;2023-06-14T02:27:00;18.40;99.00
60909;DHT22;46780;48.128;-1.704;2023-06-14T02:29:26;18.40;99.20
60909;DHT22;46780;48.128;-1.704;2023-06-14T02:31:54;18.30;99.70
60909;DHT22;46780;48.128;-1.704;2023-06-14T02:34:21;18.30;99.90
60909;DHT22;46780;48.128;-1.704;2023-06-14T02:36:47;18.30;99.90
60909;DHT22;46780;48.128;-1.704;2023-06-14T02:39:14;18.30;99.90
60909;DHT22;46780;48.128;-1.704;2023-06-14T02:41:40;18.30;99.90
60909;DHT22;46780;48.128;-1.704;2023-06-14T02:44:07;18.30;99.90
60909;DHT22;46780;48.128;-1.704;2023-06-14T02:46:33;18.40;99.90
60909;DHT22;46780;48.128;-1.704;2023-06-14T02:49:01;18.30;99.90
60909;DHT22;46780;48.128;-1.704;2023-06-14T02:51:27;18.30;99.90
60909;DHT22;46780;48.128;-1.704;2023-06-14T02:53:54;18.30;99.90
60909;DHT22;46780;48.128;-1.704;2023-06-14T02:56:20;18.40;99.90
60909;DHT22;46780;48.128;-1.704;2023-06-14T02:58:47;18.40;99.90
60909;DHT22;46780;48.128;-1.704;2023-06-14T03:01:13;18.40;99.90
60909;DHT22;46780;48.128;-1.704;2023-06-14T03:03:40;18.40;99.90
60909;DHT22;46780;48.128;-1.704;2023-06-14T03:06:08;18.40;99.90
60909;DHT22;46780;48.128;-1.704;2023-06-14T03:08:34;18.40;99.90
60909;DHT22;46780;48.128;-1.704;2023-06-14T03:11:01;18.40;99.90
60909;DHT22;46780;48.128;-1.704;2023-06-14T03:13:27;18.40;99.90
60909;DHT22;46780;48.128;-1.704;2023-06-14T03:15:54;18.40;99.90
60909;DHT22;46780;48.128;-1.704;2023-06-14T03:18:20;18.40;99.90
60909;DHT22;46780;48.128;-1.704;2023-06-14T03:20:46;18.40;99.90
60909;DHT22;46780;48.128;-1.704;2023-06-14T03:23:14;18.30;99.90
60909;DHT22;46780;48.128;-1.704;2023-06-14T03:25:41;18.30;99.90
60909;DHT22;46780;48.128;-1.704;2023-06-14T03:28:07;18.30;99.90
60909;DHT22;46780;48.128;-1.704;2023-06-14T03:30:34;18.30;99.90
60909;DHT22;46780;48.128;-1.704;2023-06-14T03:33:00;18.40;99.90
60909;DHT22;46780;48.128;-1.704;2023-06-14T03:35:27;18.30;99.90
60909;DHT22;46780;48.128;-1.704;2023-06-14T03:37:54;18.30;99.90
60909;DHT22;46780;48.128;-1.704;2023-06-14T03:40:22;18.30;99.90
60909;DHT22;46780;48.128;-1.704;2023-06-14T03:42:48;18.30;99.90
60909;DHT22;46780;48.128;-1.704;2023-06-14T03:45:15;18.30;99.90
60909;DHT22;46780;48.128;-1.704;2023-06-14T03:47:41;18.30;99.90
60909;DHT22;46780;48.128;-1.704;2023-06-14T03:50:09;18.30;99.90
60909;DHT22;46780;48.128;-1.704;2023-06-14T03:52:35;18.30;99.90
60909;DHT22;46780;48.128;-1.704;2023-06-14T03:55:02;18.30;99.90
60909;DHT22;46780;48.128;-1.704;2023-06-14T03:57:30;18.30;99.90
60909;DHT22;46780;48.128;-1.704;2023-06-14T03:59:56;18.20;99.90
60909;DHT22;46780;48.128;-1.704;2023-06-14T04:02:23;18.20;99.90
60909;DHT22;46780;48.128;-1.704;2023-06-14T04:04:49;18.10;99.90
60909;DHT22;46780;48.128;-1.704;2023-06-14T04:07:16;18.10;99.90
60909;DHT22;46780;48.128;-1.704;2023-06-14T04:09:42;18.10;99.90
60909;DHT22;46780;48.128;-1.704;2023-06-14T04:12:09;18.20;99.90
60909;DHT22;46780;48.128;-1.704;2023-06-14T04:14:37;18.20;99.90
60909;DHT22;46780;48.128;-1.704;2023-06-14T04:17:04;18.20;99.90
60909;DHT22;46780;48.128;-1.704;2023-06-14T04:19:31;18.20;99.90
60909;DHT22;46780;48.128;-1.704;2023-06-14T04:21:57;18.20;99.90
60909;DHT22;46780;48.128;-1.704;2023-06-14T04:24:24;18.10;99.90
60909;DHT22;46780;48.128;-1.704;2023-06-14T04:26:50;18.10;99.90
60909;DHT22;46780;48.128;-1.704;2023-06-14T04:29:17;18.10;99.90
60909;DHT22;46780;48.128;-1.704;2023-06-14T04:31:45;18.10;99.90
60909;DHT22;46780;48.128;-1.704;2023-06-14T04:34:12;18.10;99.90
60909;DHT22;46780;48.128;-1.704;2023-06-14T04:36:39;18.10;99.90
60909;DHT22;46780;48.128;-1.704;2023-06-14T04:39:05;18.10;99.90
60909;DHT22;46780;48.128;-1.704;2023-06-14T04:41:32;18.20;99.90
60909;DHT22;46780;48.128;-1.704;2023-06-14T04:43:59;18.20;99.90
60909;DHT22;46780;48.128;-1.704;2023-06-14T04:46:26;18.20;99.90
60909;DHT22;46780;48.128;-1.704;2023-06-14T04:48:54;18.20;99.90
60909;DHT22;46780;48.128;-1.704;2023-06-14T04:51:20;18.20;99.90
60909;DHT22;46780;48.128;-1.704;2023-06-14T04:53:47;18.20;99.90
60909;DHT22;46780;48.128;-1.704;2023-06-14T04:56:13;18.20;99.90
60909;DHT22;46780;48.128;-1.704;2023-06-14T04:58:40;18.30;99.90
60909;DHT22;46780;48.128;-1.704;2023-06-14T05:01:06;18.30;99.90
60909;DHT22;46780;48.128;-1.704;2023-06-14T05:03:33;18.30;99.90
60909;DHT22;46780;48.128;-1.704;2023-06-14T05:06:00;18.40;99.90
60909;DHT22;46780;48.128;-1.704;2023-06-14T05:08:27;18.40;99.90
60909;DHT22;46780;48.128;-1.704;2023-06-14T05:10:53;18.40;99.90
60909;DHT22;46780;48.128;-1.704;2023-06-14T05:13:20;18.40;99.90
60909;DHT22;46780;48.128;-1.704;2023-06-14T05:15:46;18.40;99.90
60909;DHT22;46780;48.128;-1.704;2023-06-14T05:18:13;18.40;99.90
60909;DHT22;46780;48.128;-1.704;2023-06-14T05:20:39;18.40;99.90
60909;DHT22;46780;48.128;-1.704;2023-06-14T05:23:07;18.50;99.90
60909;DHT22;46780;48.128;-1.704;2023-06-14T05:25:33;18.50;99.90
60909;DHT22;46780;48.128;-1.704;2023-06-14T05:28:00;18.50;99.90
60909;DHT22;46780;48.128;-1.704;2023-06-14T05:30:26;18.60;99.90
60909;DHT22;46780;48.128;-1.704;2023-06-14T05:32:53;18.60;99.90
60909;DHT22;46780;48.128;-1.704;2023-06-14T05:35:19;18.60;99.90
60909;DHT22;46780;48.128;-1.704;2023-06-14T05:37:46;18.60;99.90
60909;DHT22;46780;48.128;-1.704;2023-06-14T05:40:14;18.70;99.90
60909;DHT22;46780;48.128;-1.704;2023-06-14T05:42:40;18.70;99.90
60909;DHT22;46780;48.128;-1.704;2023-06-14T05:45:07;18.80;99.90
60909;DHT22;46780;48.128;-1.704;2023-06-14T05:47:34;18.80;99.90
60909;DHT22;46780;48.128;-1.704;2023-06-14T05:50:00;18.80;99.90
60909;DHT22;46780;48.128;-1.704;2023-06-14T05:52:27;18.90;99.90
60909;DHT22;46780;48.128;-1.704;2023-06-14T05:54:59;19.00;99.90
60909;DHT22;46780;48.128;-1.704;2023-06-14T05:57:28;19.10;99.90
60909;DHT22;46780;48.128;-1.704;2023-06-14T05:59:54;19.20;99.90
60909;DHT22;46780;48.128;-1.704;2023-06-14T06:02:21;19.20;99.90
60909;DHT22;46780;48.128;-1.704;2023-06-14T06:04:47;19.20;99.90
60909;DHT22;46780;48.128;-1.704;2023-06-14T06:07:14;19.20;99.90
60909;DHT22;46780;48.128;-1.704;2023-06-14T06:09:40;19.30;99.90
60909;DHT22;46780;48.128;-1.704;2023-06-14T06:12:07;19.40;99.90
60909;DHT22;46780;48.128;-1.704;2023-06-14T06:14:35;19.40;99.90
60909;DHT22;46780;48.128;-1.704;2023-06-14T06:17:01;19.50;99.90
60909;DHT22;46780;48.128;-1.704;2023-06-14T06:19:28;19.50;99.90
60909;DHT22;46780;48.128;-1.704;2023-06-14T06:21:54;19.60;99.90
60909;DHT22;46780;48.128;-1.704;2023-06-14T06:24:21;19.70;99.90
60909;DHT22;46780;48.128;-1.704;2023-06-14T06:26:47;19.70;99.90
60909;DHT22;46780;48.128;-1.704;2023-06-14T06:29:13;19.80;99.90
60909;DHT22;46780;48.128;-1.704;2023-06-14T06:31:41;19.90;99.60
60909;DHT22;46780;48.128;-1.704;2023-06-14T06:34:08;19.90;99.80
60909;DHT22;46780;48.128;-1.704;2023-06-14T06:36:34;19.90;99.90
60909;DHT22;46780;48.128;-1.704;2023-06-14T06:39:01;20.00;99.80
60909;DHT22;46780;48.128;-1.704;2023-06-14T06:41:27;20.10;99.70
60909;DHT22;46780;48.128;-1.704;2023-06-14T06:43:54;20.10;99.60
60909;DHT22;46780;48.128;-1.704;2023-06-14T06:46:20;20.20;99.60
60909;DHT22;46780;48.128;-1.704;2023-06-14T06:48:48;20.30;99.50
60909;DHT22;46780;48.128;-1.704;2023-06-14T06:51:14;20.30;99.40
60909;DHT22;46780;48.128;-1.704;2023-06-14T06:53:42;20.30;99.00
60909;DHT22;46780;48.128;-1.704;2023-06-14T06:56:08;20.40;98.60
60909;DHT22;46780;48.128;-1.704;2023-06-14T06:58:35;20.40;98.50
60909;DHT22;46780;48.128;-1.704;2023-06-14T07:01:01;20.50;98.20
60909;DHT22;46780;48.128;-1.704;2023-06-14T07:03:28;20.50;98.10
60909;DHT22;46780;48.128;-1.704;2023-06-14T07:05:56;20.60;97.80
60909;DHT22;46780;48.128;-1.704;2023-06-14T07:08:22;20.70;97.40
60909;DHT22;46780;48.128;-1.704;2023-06-14T07:10:49;20.80;97.30
60909;DHT22;46780;48.128;-1.704;2023-06-14T07:13:15;20.90;97.00
60909;DHT22;46780;48.128;-1.704;2023-06-14T07:15:42;21.00;96.70
60909;DHT22;46780;48.128;-1.704;2023-06-14T07:18:08;21.10;96.50
60909;DHT22;46780;48.128;-1.704;2023-06-14T07:20:34;21.20;96.00
60909;DHT22;46780;48.128;-1.704;2023-06-14T07:23:02;21.30;95.70
60909;DHT22;46780;48.128;-1.704;2023-06-14T07:25:29;21.40;95.50
60909;DHT22;46780;48.128;-1.704;2023-06-14T07:27:55;21.50;95.00
60909;DHT22;46780;48.128;-1.704;2023-06-14T07:30:22;21.60;94.80
60909;DHT22;46780;48.128;-1.704;2023-06-14T07:32:48;21.70;94.50
60909;DHT22;46780;48.128;-1.704;2023-06-14T07:35:15;21.70;94.20
60909;DHT22;46780;48.128;-1.704;2023-06-14T07:37:41;21.80;93.70
60909;DHT22;46780;48.128;-1.704;2023-06-14T07:40:10;21.90;93.60
60909;DHT22;46780;48.128;-1.704;2023-06-14T07:42:37;22.00;93.60
60909;DHT22;46780;48.128;-1.704;2023-06-14T07:45:04;22.20;93.30
60909;DHT22;46780;48.128;-1.704;2023-06-14T07:47:30;22.20;92.10
60909;DHT22;46780;48.128;-1.704;2023-06-14T07:49:57;22.20;92.00
60909;DHT22;46780;48.128;-1.704;2023-06-14T07:52:23;22.20;92.40
60909;DHT22;46780;48.128;-1.704;2023-06-14T07:54:50;22.30;92.50
60909;DHT22;46780;48.128;-1.704;2023-06-14T07:57:18;22.40;92.30
60909;DHT22;46780;48.128;-1.704;2023-06-14T07:59:44;22.60;91.90
60909;DHT22;46780;48.128;-1.704;2023-06-14T08:02:10;22.70;91.60
60909;DHT22;46780;48.128;-1.704;2023-06-14T08:04:38;22.80;91.40
60909;DHT22;46780;48.128;-1.704;2023-06-14T08:07:05;22.90;91.20
60909;DHT22;46780;48.128;-1.704;2023-06-14T08:09:31;23.00;91.00
60909;DHT22;46780;48.128;-1.704;2023-06-14T08:11:58;23.10;90.50
60909;DHT22;46780;48.128;-1.704;2023-06-14T08:14:26;23.20;90.50
60909;DHT22;46780;48.128;-1.704;2023-06-14T08:16:52;23.30;90.20
60909;DHT22;46780;48.128;-1.704;2023-06-14T08:19:19;23.40;90.00
60909;DHT22;46780;48.128;-1.704;2023-06-14T08:21:45;23.40;88.40
60909;DHT22;46780;48.128;-1.704;2023-06-14T08:24:12;23.50;88.30
60909;DHT22;46780;48.128;-1.704;2023-06-14T08:26:38;23.50;87.80
60909;DHT22;46780;48.128;-1.704;2023-06-14T08:29:05;23.60;88.20
60909;DHT22;46780;48.128;-1.704;2023-06-14T08:31:33;23.60;87.70
60909;DHT22;46780;48.128;-1.704;2023-06-14T08:34:00;23.70;87.40
60909;DHT22;46780;48.128;-1.704;2023-06-14T08:36:26;23.80;87.60
60909;DHT22;46780;48.128;-1.704;2023-06-14T08:38:53;24.10;87.60
60909;DHT22;46780;48.128;-1.704;2023-06-14T08:41:21;24.20;86.10
60909;DHT22;46780;48.128;-1.704;2023-06-14T08:43:48;24.40;85.20
60909;DHT22;46780;48.128;-1.704;2023-06-14T08:46:15;24.50;85.00
60909;DHT22;46780;48.128;-1.704;2023-06-14T08:48:44;24.60;83.20
60909;DHT22;46780;48.128;-1.704;2023-06-14T08:51:13;24.80;81.60
60909;DHT22;46780;48.128;-1.704;2023-06-14T08:53:40;25.10;79.70
60909;DHT22;46780;48.128;-1.704;2023-06-14T08:56:06;25.20;77.70
60909;DHT22;46780;48.128;-1.704;2023-06-14T08:58:33;25.40;77.00
60909;DHT22;46780;48.128;-1.704;2023-06-14T09:01:01;25.50;75.50
60909;DHT22;46780;48.128;-1.704;2023-06-14T09:03:28;25.60;74.80
60909;DHT22;46780;48.128;-1.704;2023-06-14T09:05:56;25.70;73.50
60909;DHT22;46780;48.128;-1.704;2023-06-14T09:08:23;25.80;73.10
60909;DHT22;46780;48.128;-1.704;2023-06-14T09:10:50;25.90;73.00
60909;DHT22;46780;48.128;-1.704;2023-06-14T09:13:17;26.00;72.60
60909;DHT22;46780;48.128;-1.704;2023-06-14T09:15:44;26.20;72.00
60909;DHT22;46780;48.128;-1.704;2023-06-14T09:18:11;26.30;71.10
60909;DHT22;46780;48.128;-1.704;2023-06-14T09:20:37;26.50;70.30
60909;DHT22;46780;48.128;-1.704;2023-06-14T09:23:05;26.50;68.70
60909;DHT22;46780;48.128;-1.704;2023-06-14T09:25:32;26.70;68.00
60909;DHT22;46780;48.128;-1.704;2023-06-14T09:27:58;26.70;67.70
60909;DHT22;46780;48.128;-1.704;2023-06-14T09:30:26;26.90;67.90
60909;DHT22;46780;48.128;-1.704;2023-06-14T09:32:53;27.00;67.30
60909;DHT22;46780;48.128;-1.704;2023-06-14T09:35:20;27.10;66.50
60909;DHT22;46780;48.128;-1.704;2023-06-14T09:37:47;27.20;64.80
60909;DHT22;46780;48.128;-1.704;2023-06-14T09:40:20;27.20;64.00
60909;DHT22;46780;48.128;-1.704;2023-06-14T09:42:47;27.10;64.80
60909;DHT22;46780;48.128;-1.704;2023-06-14T09:45:14;27.30;65.70
60909;DHT22;46780;48.128;-1.704;2023-06-14T09:47:41;27.50;65.40
60909;DHT22;46780;48.128;-1.704;2023-06-14T09:50:09;27.70;64.30
60909;DHT22;46780;48.128;-1.704;2023-06-14T09:52:35;28.20;63.00
60909;DHT22;46780;48.128;-1.704;2023-06-14T09:55:10;28.60;60.10
60909;DHT22;46780;48.128;-1.704;2023-06-14T09:57:41;29.00;57.80
60909;DHT22;46780;48.128;-1.704;2023-06-14T10:00:09;29.30;56.50
60909;DHT22;46780;48.128;-1.704;2023-06-14T10:02:36;29.50;54.30
60909;DHT22;46780;48.128;-1.704;2023-06-14T10:05:04;29.50;53.00
60909;DHT22;46780;48.128;-1.704;2023-06-14T10:07:35;29.50;52.20
60909;DHT22;46780;48.128;-1.704;2023-06-14T10:10:02;29.40;52.50
60909;DHT22;46780;48.128;-1.704;2023-06-14T10:12:28;29.40;52.80
60909;DHT22;46780;48.128;-1.704;2023-06-14T10:14:58;29.30;52.90
60909;DHT22;46780;48.128;-1.704;2023-06-14T10:17:30;29.40;52.30
60909;DHT22;46780;48.128;-1.704;2023-06-14T10:20:14;29.40;53.40
60909;DHT22;46780;48.128;-1.704;2023-06-14T10:22:47;29.40;52.70
60909;DHT22;46780;48.128;-1.704;2023-06-14T10:25:26;29.40;52.10
60909;DHT22;46780;48.128;-1.704;2023-06-14T10:28:02;29.50;51.30
60909;DHT22;46780;48.128;-1.704;2023-06-14T10:30:31;29.50;51.70
60909;DHT22;46780;48.128;-1.704;2023-06-14T10:33:04;29.60;52.30
60909;DHT22;46780;48.128;-1.704;2023-06-14T10:35:31;29.70;51.40
60909;DHT22;46780;48.128;-1.704;2023-06-14T10:38:07;29.80;51.70
60909;DHT22;46780;48.128;-1.704;2023-06-14T10:40:34;29.80;50.50
60909;DHT22;46780;48.128;-1.704;2023-06-14T10:43:01;29.80;49.90
60909;DHT22;46780;48.128;-1.704;2023-06-14T10:46:18;29.90;49.60
60909;DHT22;46780;48.128;-1.704;2023-06-14T10:48:45;30.10;48.90
60909;DHT22;46780;48.128;-1.704;2023-06-14T10:51:18;30.20;48.20
60909;DHT22;46780;48.128;-1.704;2023-06-14T10:53:45;30.20;47.50
60909;DHT22;46780;48.128;-1.704;2023-06-14T10:56:23;30.30;47.80
60909;DHT22;46780;48.128;-1.704;2023-06-14T10:58:50;30.40;46.70
60909;DHT22;46780;48.128;-1.704;2023-06-14T11:01:19;30.40;46.20
60909;DHT22;46780;48.128;-1.704;2023-06-14T11:03:51;30.40;46.60
60909;DHT22;46780;48.128;-1.704;2023-06-14T11:06:22;30.60;46.70
60909;DHT22;46780;48.128;-1.704;2023-06-14T11:11:56;30.80;45.60
60909;DHT22;46780;48.128;-1.704;2023-06-14T11:14:23;30.80;44.60
60909;DHT22;46780;48.128;-1.704;2023-06-14T11:16:51;30.80;43.90
60909;DHT22;46780;48.128;-1.704;2023-06-14T11:19:17;30.80;43.20
60909;DHT22;46780;48.128;-1.704;2023-06-14T11:21:47;30.90;44.10
60909;DHT22;46780;48.128;-1.704;2023-06-14T11:24:14;30.90;44.20
60909;DHT22;46780;48.128;-1.704;2023-06-14T11:26:40;30.90;44.20
60909;DHT22;46780;48.128;-1.704;2023-06-14T11:29:07;31.00;42.50
60909;DHT22;46780;48.128;-1.704;2023-06-14T11:31:33;31.10;41.50
60909;DHT22;46780;48.128;-1.704;2023-06-14T11:34:01;31.00;41.50
60909;DHT22;46780;48.128;-1.704;2023-06-14T11:36:28;31.00;41.90
60909;DHT22;46780;48.128;-1.704;2023-06-14T11:38:58;31.00;41.70
60909;DHT22;46780;48.128;-1.704;2023-06-14T11:41:25;31.10;41.70
60909;DHT22;46780;48.128;-1.704;2023-06-14T11:43:52;31.20;40.70
60909;DHT22;46780;48.128;-1.704;2023-06-14T11:46:19;31.20;39.40
60909;DHT22;46780;48.128;-1.704;2023-06-14T11:48:45;31.20;40.10
60909;DHT22;46780;48.128;-1.704;2023-06-14T11:51:13;31.30;40.20
60909;DHT22;46780;48.128;-1.704;2023-06-14T11:53:40;31.40;39.30
60909;DHT22;46780;48.128;-1.704;2023-06-14T11:56:08;31.50;38.10
60909;DHT22;46780;48.128;-1.704;2023-06-14T11:58:35;31.50;38.30
60909;DHT22;46780;48.128;-1.704;2023-06-14T12:01:03;31.40;38.70
60909;DHT22;46780;48.128;-1.704;2023-06-14T12:03:29;31.50;38.80
60909;DHT22;46780;48.128;-1.704;2023-06-14T12:06:04;31.60;37.80
60909;DHT22;46780;48.128;-1.704;2023-06-14T12:08:36;31.60;37.60
60909;DHT22;46780;48.128;-1.704;2023-06-14T12:11:03;31.60;37.80
60909;DHT22;46780;48.128;-1.704;2023-06-14T12:13:29;31.60;37.90
60909;DHT22;46780;48.128;-1.704;2023-06-14T12:15:56;31.70;37.20
60909;DHT22;46780;48.128;-1.704;2023-06-14T12:18:32;31.80;36.30
60909;DHT22;46780;48.128;-1.704;2023-06-14T12:20:59;31.90;34.50
60909;DHT22;46780;48.128;-1.704;2023-06-14T12:23:25;31.90;34.30
60909;DHT22;46780;48.128;-1.704;2023-06-14T12:25:53;32.00;34.50
60909;DHT22;46780;48.128;-1.704;2023-06-14T12:28:20;32.10;34.00
60909;DHT22;46780;48.128;-1.704;2023-06-14T12:30:46;32.00;33.00
60909;DHT22;46780;48.128;-1.704;2023-06-14T12:33:13;32.00;33.30
60909;DHT22;46780;48.128;-1.704;2023-06-14T12:35:39;31.90;33.10
60909;DHT22;46780;48.128;-1.704;2023-06-14T12:38:06;31.80;33.80
60909;DHT22;46780;48.128;-1.704;2023-06-14T12:40:32;31.90;33.70
60909;DHT22;46780;48.128;-1.704;2023-06-14T12:43:00;31.90;33.50
60909;DHT22;46780;48.128;-1.704;2023-06-14T12:45:27;32.10;33.70
60909;DHT22;46780;48.128;-1.704;2023-06-14T12:47:53;32.20;33.20
60909;DHT22;46780;48.128;-1.704;2023-06-14T12:50:20;32.20;33.00
60909;DHT22;46780;48.128;-1.704;2023-06-14T12:52:46;32.30;33.10
60909;DHT22;46780;48.128;-1.704;2023-06-14T12:55:13;32.30;33.30
60909;DHT22;46780;48.128;-1.704;2023-06-14T12:57:39;32.40;32.90
60909;DHT22;46780;48.128;-1.704;2023-06-14T13:00:08;32.50;32.70
60909;DHT22;46780;48.128;-1.704;2023-06-14T13:02:35;32.60;32.30
60909;DHT22;46780;48.128;-1.704;2023-06-14T13:05:01;32.60;32.50
60909;DHT22;46780;48.128;-1.704;2023-06-14T13:07:28;32.60;32.40
60909;DHT22;46780;48.128;-1.704;2023-06-14T13:09:54;32.60;30.90
60909;DHT22;46780;48.128;-1.704;2023-06-14T13:12:21;32.40;31.40
60909;DHT22;46780;48.128;-1.704;2023-06-14T13:14:47;32.40;31.70
60909;DHT22;46780;48.128;-1.704;2023-06-14T13:17:15;32.40;31.60
60909;DHT22;46780;48.128;-1.704;2023-06-14T13:19:42;32.30;32.20
60909;DHT22;46780;48.128;-1.704;2023-06-14T13:22:08;32.20;32.20
60909;DHT22;46780;48.128;-1.704;2023-06-14T13:24:35;32.30;32.40
60909;DHT22;46780;48.128;-1.704;2023-06-14T13:27:02;32.40;32.40
60909;DHT22;46780;48.128;-1.704;2023-06-14T13:29:29;32.50;32.00
60909;DHT22;46780;48.128;-1.704;2023-06-14T13:31:55;32.60;31.80
60909;DHT22;46780;48.128;-1.704;2023-06-14T13:34:23;32.70;30.90
60909;DHT22;46780;48.128;-1.704;2023-06-14T13:36:50;32.80;30.60
60909;DHT22;46780;48.128;-1.704;2023-06-14T13:39:17;32.80;30.90
60909;DHT22;46780;48.128;-1.704;2023-06-14T13:41:43;32.80;31.20
60909;DHT22;46780;48.128;-1.704;2023-06-14T13:44:10;32.80;31.10
60909;DHT22;46780;48.128;-1.704;2023-06-14T13:46:36;32.80;30.70
60909;DHT22;46780;48.128;-1.704;2023-06-14T13:49:03;32.70;30.30
60909;DHT22;46780;48.128;-1.704;2023-06-14T13:51:31;32.60;30.10
60909;DHT22;46780;48.128;-1.704;2023-06-14T13:53:57;32.60;30.50
60909;DHT22;46780;48.128;-1.704;2023-06-14T13:56:24;32.70;30.00
60909;DHT22;46780;48.128;-1.704;2023-06-14T13:58:50;32.80;30.10
60909;DHT22;46780;48.128;-1.704;2023-06-14T14:01:17;32.80;29.90
60909;DHT22;46780;48.128;-1.704;2023-06-14T14:03:44;32.80;29.70
60909;DHT22;46780;48.128;-1.704;2023-06-14T14:06:10;32.70;29.40
60909;DHT22;46780;48.128;-1.704;2023-06-14T14:08:38;32.60;29.80
60909;DHT22;46780;48.128;-1.704;2023-06-14T14:11:05;32.60;29.70
60909;DHT22;46780;48.128;-1.704;2023-06-14T14:13:31;32.60;29.60
60909;DHT22;46780;48.128;-1.704;2023-06-14T14:15:58;32.50;29.10
60909;DHT22;46780;48.128;-1.704;2023-06-14T14:18:25;32.40;29.40
60909;DHT22;46780;48.128;-1.704;2023-06-14T14:20:51;32.40;29.60
60909;DHT22;46780;48.128;-1.704;2023-06-14T14:23:18;32.40;29.70
60909;DHT22;46780;48.128;-1.704;2023-06-14T14:25:45;32.30;29.80
60909;DHT22;46780;48.128;-1.704;2023-06-14T14:28:13;32.20;29.60
60909;DHT22;46780;48.128;-1.704;2023-06-14T14:30:40;32.00;29.20
60909;DHT22;46780;48.128;-1.704;2023-06-14T14:33:07;32.00;29.90
60909;DHT22;46780;48.128;-1.704;2023-06-14T14:35:33;32.00;29.80
60909;DHT22;46780;48.128;-1.704;2023-06-14T14:38:00;32.10;29.70
60909;DHT22;46780;48.128;-1.704;2023-06-14T14:40:26;32.10;29.70
60909;DHT22;46780;48.128;-1.704;2023-06-14T14:42:54;32.10;29.20
60909;DHT22;46780;48.128;-1.704;2023-06-14T14:45:21;32.20;29.20
60909;DHT22;46780;48.128;-1.704;2023-06-14T14:47:47;32.20;29.20
60909;DHT22;46780;48.128;-1.704;2023-06-14T14:50:14;32.20;29.30
60909;DHT22;46780;48.128;-1.704;2023-06-14T14:52:40;32.20;29.50
60909;DHT22;46780;48.128;-1.704;2023-06-14T14:55:08;32.20;29.50
60909;DHT22;46780;48.128;-1.704;2023-06-14T14:57:34;32.20;29.40
60909;DHT22;46780;48.128;-1.704;2023-06-14T15:00:03;32.10;29.20
60909;DHT22;46780;48.128;-1.704;2023-06-14T15:02:30;32.10;29.50
60909;DHT22;46780;48.128;-1.704;2023-06-14T15:04:56;32.10;29.50
60909;DHT22;46780;48.128;-1.704;2023-06-14T15:07:23;32.10;29.50
60909;DHT22;46780;48.128;-1.704;2023-06-14T15:09:49;32.10;29.70
60909;DHT22;46780;48.128;-1.704;2023-06-14T15:12:16;32.10;29.90
60909;DHT22;46780;48.128;-1.704;2023-06-14T15:14:43;32.10;30.20
60909;DHT22;46780;48.128;-1.704;2023-06-14T15:17:11;31.90;30.70
60909;DHT22;46780;48.128;-1.704;2023-06-14T15:19:37;31.80;30.70